Terminal Aerodrome Forecast
Issued by NWS

Home | Current Version | Previous Version | Text Only | Print | Product List | Glossary On
Versions: 1 2 3 4 5 6 7 8 9 10 11 12 13 14
000
FTUS41 KBTV 271700
TAFMSS
TAF
KMSS 271735Z 2718/2818 25009KT P6SM SCT035
     FM280000 28005KT P6SM BKN090
     FM281500 30008KT P6SM SCT040=

USA.gov is the U.S. government's official web portal to all federal, state and local government web resources and services.